createdAt,value
2019-04-11T00:00:15.883Z,0.00
2019-04-11T00:01:16.379Z,0.00
2019-04-11T00:02:16.418Z,0.00
2019-04-11T00:03:15.990Z,0.00
2019-04-11T00:04:16.025Z,0.00
2019-04-11T00:05:16.883Z,0.00
2019-04-11T00:06:17.204Z,0.00
2019-04-11T00:07:16.231Z,0.00
2019-04-11T00:08:16.172Z,0.00
2019-04-11T00:09:16.714Z,0.00
2019-04-11T00:10:17.224Z,0.00
2019-04-11T00:11:16.283Z,0.00
2019-04-11T00:12:16.601Z,0.00
2019-04-11T00:13:23.385Z,0.00
2019-04-11T00:14:16.385Z,0.00
2019-04-11T00:15:16.422Z,0.00
2019-04-11T00:16:17.220Z,0.00
2019-04-11T00:17:17.492Z,0.00
2019-04-11T00:18:16.705Z,0.00
2019-04-11T00:19:16.566Z,0.00
2019-04-11T00:20:16.602Z,0.00
2019-04-11T00:21:17.005Z,0.00
2019-04-11T00:22:17.368Z,0.00
2019-04-11T00:23:16.758Z,0.00
2019-04-11T00:24:16.745Z,0.00
2019-04-11T00:25:17.702Z,0.00
2019-04-11T00:26:17.052Z,0.00
2019-04-11T00:27:17.169Z,0.00
2019-04-11T00:28:17.378Z,0.00
2019-04-11T00:29:16.923Z,0.00
2019-04-11T00:30:17.824Z,0.00
2019-04-11T00:31:17.005Z,0.00
2019-04-11T00:32:17.193Z,0.00
2019-04-11T00:33:18.134Z,0.00
2019-04-11T00:34:17.103Z,0.00
2019-04-11T00:35:17.597Z,0.00
2019-04-11T00:36:17.175Z,0.00
2019-04-11T00:37:17.211Z,0.00
2019-04-11T00:38:18.024Z,0.00
2019-04-11T00:39:17.345Z,0.00
2019-04-11T00:40:18.620Z,0.00
2019-04-11T00:41:17.563Z,0.00
2019-04-11T00:42:18.626Z,0.00
2019-04-11T00:43:28.582Z,0.00
2019-04-11T00:44:17.461Z,0.00
2019-04-11T00:45:17.497Z,0.00
2019-04-11T00:46:18.296Z,0.00
2019-04-11T00:47:17.570Z,0.00
2019-04-11T00:48:17.645Z,0.00
2019-04-11T00:49:18.678Z,0.00
2019-04-11T00:50:17.685Z,0.00
2019-04-11T00:51:18.728Z,0.00
2019-04-11T00:52:17.749Z,0.00
2019-04-11T00:53:18.921Z,0.00
2019-04-11T00:54:18.476Z,0.00
2019-04-11T00:55:17.857Z,0.00
2019-04-11T00:56:17.919Z,0.00
2019-04-11T00:57:18.962Z,0.00
2019-04-11T00:58:17.964Z,0.00
2019-04-11T00:59:18.304Z,0.00
2019-04-11T01:00:18.659Z,0.00
2019-04-11T01:01:18.069Z,0.00
2019-04-11T01:02:18.106Z,0.00
2019-04-11T01:03:18.141Z,0.00
2019-04-11T01:04:18.176Z,0.00
2019-04-11T01:05:18.302Z,0.00
2019-04-11T01:06:18.320Z,0.00
2019-04-11T01:07:18.545Z,0.00
2019-04-11T01:08:18.319Z,0.00
2019-04-11T01:09:18.354Z,0.00
2019-04-11T01:10:18.389Z,0.00
2019-04-11T01:11:19.462Z,0.00
2019-04-11T01:12:18.666Z,0.00
2019-04-11T01:13:18.546Z,0.00
2019-04-11T01:14:18.533Z,0.00
2019-04-11T01:15:19.567Z,0.00
2019-04-11T01:16:18.604Z,0.00
2019-04-11T01:17:18.641Z,0.00
2019-04-11T01:18:19.747Z,0.00
2019-04-11T01:19:18.712Z,0.00
2019-04-11T01:20:19.507Z,0.00
2019-04-11T01:21:19.938Z,0.00
2019-04-11T01:22:18.817Z,0.00
2019-04-11T01:23:18.860Z,0.00
2019-04-11T01:24:19.759Z,0.00
2019-04-11T01:25:20.040Z,0.00
2019-04-11T01:26:19.196Z,0.00
2019-04-11T01:27:18.997Z,0.00
2019-04-11T01:28:19.034Z,0.00
2019-04-11T01:29:19.678Z,0.00
2019-04-11T01:30:19.102Z,0.00
2019-04-11T01:31:19.721Z,0.00
2019-04-11T01:32:19.174Z,0.00
2019-04-11T01:33:20.624Z,0.00
2019-04-11T01:34:20.242Z,0.00
2019-04-11T01:35:19.372Z,0.00
2019-04-11T01:36:19.325Z,0.00
2019-04-11T01:37:19.720Z,0.00
2019-04-11T01:38:21.343Z,0.00
2019-04-11T01:39:19.423Z,0.00
2019-04-11T01:40:19.467Z,0.00
2019-04-11T01:41:20.517Z,0.00
2019-04-11T01:42:19.597Z,0.00
2019-04-11T01:43:19.837Z,0.00
2019-04-11T01:44:20.690Z,0.00
2019-04-11T01:45:19.636Z,0.00
2019-04-11T01:46:20.147Z,0.00
2019-04-11T01:47:20.484Z,0.00
2019-04-11T01:48:19.748Z,0.00
2019-04-11T01:49:19.839Z,0.00
2019-04-11T01:50:20.747Z,0.00
2019-04-11T01:51:19.851Z,0.00
2019-04-11T01:52:20.348Z,0.00
2019-04-11T01:53:19.924Z,0.00
2019-04-11T01:54:19.956Z,0.00
2019-04-11T01:55:20.665Z,0.00
2019-04-11T01:56:21.049Z,0.00
2019-04-11T01:57:20.116Z,0.00
2019-04-11T01:58:20.097Z,0.00
2019-04-11T01:59:20.142Z,0.00
2019-04-11T02:00:20.170Z,0.00
2019-04-11T02:01:20.943Z,0.00
2019-04-11T02:02:21.239Z,0.00
2019-04-11T02:03:21.190Z,0.00
2019-04-11T02:04:21.533Z,0.00
2019-04-11T02:05:20.950Z,0.00
2019-04-11T02:06:21.394Z,0.00
2019-04-11T02:07:20.632Z,0.00
2019-04-11T02:08:20.453Z,0.00
2019-04-11T02:09:20.486Z,0.00
2019-04-11T02:10:21.027Z,0.00
2019-04-11T02:11:21.309Z,0.00
2019-04-11T02:12:20.841Z,0.00
2019-04-11T02:13:20.639Z,0.00
2019-04-11T02:14:21.498Z,0.00
2019-04-11T02:15:21.930Z,0.00
2019-04-11T02:16:21.014Z,0.00
2019-04-11T02:17:20.771Z,0.00
2019-04-11T02:18:21.489Z,0.00
2019-04-11T02:19:20.843Z,0.00
2019-04-11T02:20:20.963Z,0.00
2019-04-11T02:21:21.856Z,0.00
2019-04-11T02:22:20.949Z,0.00
2019-04-11T02:23:21.548Z,0.00
2019-04-11T02:24:21.021Z,0.00
2019-04-11T02:25:21.057Z,0.00
2019-04-11T02:26:21.098Z,0.00
2019-04-11T02:27:21.218Z,0.00
2019-04-11T02:28:22.419Z,0.00
2019-04-11T02:29:21.415Z,0.00
2019-04-11T02:30:22.762Z,0.00
2019-04-11T02:31:22.866Z,0.00
2019-04-11T02:32:24.531Z,0.00
2019-04-11T02:33:21.926Z,0.00
2019-04-11T02:34:21.375Z,0.00
2019-04-11T02:35:22.686Z,0.00
2019-04-11T02:36:21.445Z,0.00
2019-04-11T02:37:21.935Z,0.00
2019-04-11T02:38:23.572Z,0.00
2019-04-11T02:39:22.920Z,0.00
2019-04-11T02:40:22.971Z,0.00
2019-04-11T02:41:21.658Z,0.00
2019-04-11T02:42:23.194Z,0.00
2019-04-11T02:43:22.971Z,0.00
2019-04-11T02:44:39.470Z,0.00
2019-04-11T02:45:30.703Z,0.00
2019-04-11T02:46:32.297Z,0.00
2019-04-11T02:47:25.387Z,0.00
2019-04-11T02:48:22.112Z,0.00
2019-04-11T02:49:23.466Z,0.00
2019-04-11T02:50:24.256Z,0.00
2019-04-11T02:51:22.838Z,0.00
2019-04-11T02:52:22.946Z,0.00
2019-04-11T02:53:23.758Z,0.00
2019-04-11T02:54:24.446Z,0.00
2019-04-11T02:55:22.113Z,0.00
2019-04-11T02:56:23.866Z,0.00
2019-04-11T02:57:23.408Z,0.00
2019-04-11T02:58:23.102Z,0.00
2019-04-11T02:59:22.257Z,0.00
2019-04-11T03:00:24.269Z,0.00
2019-04-11T03:01:24.116Z,0.00
2019-04-11T03:02:23.925Z,0.00
2019-04-11T03:03:23.192Z,0.00
2019-04-11T03:04:24.262Z,0.00
2019-04-11T03:05:22.469Z,0.00
2019-04-11T03:06:23.428Z,0.00
2019-04-11T03:07:22.785Z,0.00
2019-04-11T03:08:24.107Z,0.00
2019-04-11T03:09:24.124Z,0.00
2019-04-11T03:10:22.651Z,0.00
2019-04-11T03:11:24.147Z,0.00
2019-04-11T03:12:24.014Z,0.00
2019-04-11T03:13:23.278Z,0.00
2019-04-11T03:14:23.337Z,0.00
2019-04-11T03:15:37.564Z,0.00
2019-04-11T03:16:35.115Z,0.00
2019-04-11T03:17:28.658Z,0.00
2019-04-11T03:18:40.722Z,0.00
2019-04-11T03:19:37.546Z,0.00
2019-04-11T03:20:31.712Z,0.00
2019-04-11T03:21:24.467Z,0.00
2019-04-11T03:22:24.760Z,0.00
2019-04-11T03:23:24.941Z,0.00
2019-04-11T03:24:24.466Z,0.00
2019-04-11T03:25:24.649Z,0.00
2019-04-11T03:26:24.924Z,0.00
2019-04-11T03:27:26.061Z,0.00
2019-04-11T03:28:27.619Z,0.00
2019-04-11T03:29:24.289Z,0.00
2019-04-11T03:30:33.910Z,0.00
2019-04-11T03:32:07.430Z,0.00
2019-04-11T03:34:13.044Z,0.00
2019-04-11T03:35:16.929Z,0.00
2019-04-11T03:37:49.888Z,0.00
2019-04-11T03:38:46.853Z,0.00
2019-04-11T03:39:48.743Z,0.00
2019-04-11T03:40:43.667Z,0.00
2019-04-11T03:41:42.843Z,0.00
2019-04-11T03:42:41.667Z,0.00
2019-04-11T03:43:33.700Z,0.00
2019-04-11T03:44:30.557Z,0.00
2019-04-11T03:45:43.813Z,0.00
2019-04-11T03:46:37.680Z,0.00
2019-04-11T03:47:37.551Z,0.00
2019-04-11T03:48:36.854Z,0.00
2019-04-11T03:49:34.253Z,0.00
2019-04-11T03:50:27.974Z,0.00
2019-04-11T03:51:25.786Z,0.00
2019-04-11T03:52:25.639Z,0.00
2019-04-11T03:53:29.095Z,0.00
2019-04-11T03:54:25.216Z,0.00
2019-04-11T03:55:25.951Z,0.00
2019-04-11T03:56:24.537Z,0.00
2019-04-11T03:57:25.582Z,0.00
2019-04-11T03:58:25.767Z,0.00
2019-04-11T03:59:24.488Z,0.00
2019-04-11T04:00:29.885Z,0.00
2019-04-11T04:01:26.542Z,0.00
2019-04-11T04:02:25.170Z,0.00
2019-04-11T04:03:26.334Z,0.00
2019-04-11T04:04:26.267Z,0.00
2019-04-11T04:05:26.399Z,0.00
2019-04-11T04:06:25.557Z,0.00
2019-04-11T04:07:24.660Z,0.00
2019-04-11T04:08:26.370Z,0.00
2019-04-11T04:09:26.315Z,0.00
2019-04-11T04:10:25.769Z,0.00
2019-04-11T04:11:27.168Z,0.00
2019-04-11T04:12:24.828Z,0.00
2019-04-11T04:13:27.697Z,0.00
2019-04-11T04:14:26.225Z,0.00
2019-04-11T04:15:46.470Z,0.00
2019-04-11T04:16:32.216Z,0.00
2019-04-11T04:17:25.490Z,0.00
2019-04-11T04:18:25.074Z,0.00
2019-04-11T04:19:28.572Z,0.00
2019-04-11T04:20:26.767Z,0.00
2019-04-11T04:21:26.469Z,0.00
2019-04-11T04:22:25.187Z,0.00
2019-04-11T04:23:25.220Z,0.00
2019-04-11T04:24:25.251Z,0.00
2019-04-11T04:25:26.161Z,0.00
2019-04-11T04:26:25.649Z,0.00
2019-04-11T04:27:27.896Z,0.00
2019-04-11T04:28:27.119Z,0.00
2019-04-11T04:29:27.530Z,0.00
2019-04-11T04:30:27.682Z,0.00
2019-04-11T04:31:26.707Z,0.00
2019-04-11T04:32:25.536Z,5.63
2019-04-11T04:33:26.580Z,5.63
2019-04-11T04:34:26.011Z,5.63
2019-04-11T04:35:27.699Z,5.63
2019-04-11T04:36:27.261Z,5.63
2019-04-11T04:37:26.671Z,5.63
2019-04-11T04:38:27.191Z,5.63
2019-04-11T04:39:27.361Z,5.63
2019-04-11T04:40:42.508Z,11.25
2019-04-11T04:41:36.653Z,11.25
2019-04-11T04:42:32.225Z,11.25
2019-04-11T04:43:27.438Z,11.25
2019-04-11T04:44:26.519Z,11.25
2019-04-11T04:45:27.509Z,11.25
2019-04-11T04:46:42.301Z,16.88
2019-04-11T04:47:37.201Z,16.88
2019-04-11T04:48:27.168Z,16.88
2019-04-11T04:49:27.915Z,16.88
2019-04-11T04:50:26.800Z,16.88
2019-04-11T04:51:26.806Z,22.50
2019-04-11T04:52:27.931Z,22.50
2019-04-11T04:53:28.233Z,22.50
2019-04-11T04:54:26.296Z,22.50
2019-04-11T04:55:28.023Z,28.13
2019-04-11T04:56:30.772Z,28.13
2019-04-11T04:57:26.758Z,28.13
2019-04-11T04:58:26.624Z,28.13
2019-04-11T04:59:28.184Z,28.13
2019-04-11T05:00:28.032Z,33.75
2019-04-11T05:01:28.424Z,33.75
2019-04-11T05:02:28.342Z,33.75
2019-04-11T05:03:26.950Z,33.75
2019-04-11T05:04:27.534Z,39.38
2019-04-11T05:05:28.565Z,39.38
2019-04-11T05:06:28.109Z,39.38
2019-04-11T05:07:30.672Z,39.38
2019-04-11T05:08:27.225Z,39.38
2019-04-11T05:09:26.838Z,45.00
2019-04-11T05:10:28.364Z,45.00
2019-04-11T05:11:28.236Z,45.00
2019-04-11T05:12:28.151Z,45.00
2019-04-11T05:13:27.964Z,50.63
2019-04-11T05:14:27.519Z,50.63
2019-04-11T05:15:28.208Z,50.63
2019-04-11T05:16:27.072Z,50.63
2019-04-11T05:17:28.797Z,50.63
2019-04-11T05:18:27.949Z,56.25
2019-04-11T05:19:28.490Z,56.25
2019-04-11T05:20:28.176Z,56.25
2019-04-11T05:21:27.608Z,56.25
2019-04-11T05:22:27.285Z,56.25
2019-04-11T05:23:27.644Z,61.88
2019-04-11T05:24:28.322Z,61.88
2019-04-11T05:25:28.571Z,61.88
2019-04-11T05:26:27.873Z,61.88
2019-04-11T05:27:27.454Z,61.88
2019-04-11T05:28:27.725Z,61.88
2019-04-11T05:29:27.527Z,67.50
2019-04-11T05:30:27.566Z,67.50
2019-04-11T05:31:27.594Z,67.50
2019-04-11T05:32:27.698Z,67.50
2019-04-11T05:33:27.665Z,67.50
2019-04-11T05:34:28.042Z,73.13
2019-04-11T05:35:27.741Z,73.13
2019-04-11T05:36:28.324Z,73.13
2019-04-11T05:37:27.804Z,73.13
2019-04-11T05:38:27.839Z,73.13
2019-04-11T05:39:27.873Z,73.13
2019-04-11T05:40:28.149Z,78.75
2019-04-11T05:41:29.282Z,78.75
2019-04-11T05:42:29.153Z,78.75
2019-04-11T05:43:31.692Z,78.75
2019-04-11T05:44:28.493Z,78.75
2019-04-11T05:45:28.086Z,78.75
2019-04-11T05:46:35.466Z,78.75
2019-04-11T05:47:28.160Z,84.38
2019-04-11T05:48:28.641Z,84.38
2019-04-11T05:49:29.072Z,84.38
2019-04-11T05:50:28.521Z,84.38
2019-04-11T05:51:38.857Z,84.38
2019-04-11T05:52:31.937Z,84.38
2019-04-11T05:53:28.369Z,90.00
2019-04-11T05:54:28.407Z,90.00
2019-04-11T05:55:28.438Z,90.00
2019-04-11T05:56:28.474Z,90.00
2019-04-11T05:57:35.180Z,90.00
2019-04-11T05:58:28.544Z,90.00
2019-04-11T05:59:28.582Z,90.00
2019-04-11T06:00:28.618Z,95.63
2019-04-11T06:01:29.094Z,95.63
2019-04-11T06:02:29.006Z,95.63
2019-04-11T06:03:29.033Z,95.63
2019-04-11T06:04:30.183Z,95.63
2019-04-11T06:05:32.385Z,95.63
2019-04-11T06:06:31.900Z,95.63
2019-04-11T06:07:29.286Z,95.63
2019-04-11T06:08:30.372Z,101.25
2019-04-11T06:09:32.959Z,101.25
2019-04-11T06:10:30.204Z,101.25
2019-04-11T06:11:29.008Z,101.25
2019-04-11T06:12:29.626Z,101.25
2019-04-11T06:13:29.078Z,101.25
2019-04-11T06:14:29.126Z,101.25
2019-04-11T06:15:29.216Z,101.25
2019-04-11T06:16:36.961Z,106.88
2019-04-11T06:17:30.142Z,106.88
2019-04-11T06:18:33.075Z,106.88
2019-04-11T06:19:30.488Z,106.88
2019-04-11T06:20:29.338Z,106.88
2019-04-11T06:21:29.359Z,106.88
2019-04-11T06:22:29.752Z,106.88
2019-04-11T06:23:29.687Z,106.88
2019-04-11T06:24:29.467Z,106.88
2019-04-11T06:25:30.897Z,112.50
2019-04-11T06:26:30.404Z,112.50
2019-04-11T06:27:30.493Z,112.50
2019-04-11T06:28:30.697Z,112.50
2019-04-11T06:29:31.052Z,112.50
2019-04-11T06:30:30.476Z,112.50
2019-04-11T06:31:29.881Z,112.50
2019-04-11T06:32:29.949Z,112.50
2019-04-11T06:33:29.791Z,112.50
2019-04-11T06:34:30.435Z,112.50
2019-04-11T06:35:30.338Z,112.50
2019-04-11T06:36:30.147Z,112.50
2019-04-11T06:37:29.937Z,112.50
2019-04-11T06:38:30.337Z,118.13
2019-04-11T06:39:30.007Z,118.13
2019-04-11T06:40:30.043Z,118.13
2019-04-11T06:41:30.604Z,118.13
2019-04-11T06:42:30.285Z,118.13
2019-04-11T06:43:30.151Z,118.13
2019-04-11T06:44:30.187Z,118.13
2019-04-11T06:45:31.376Z,118.13
2019-04-11T06:46:31.382Z,118.13
2019-04-11T06:47:30.296Z,118.13
2019-04-11T06:48:30.339Z,118.13
2019-04-11T06:49:30.830Z,118.13
2019-04-11T06:50:31.294Z,118.13
2019-04-11T06:51:30.449Z,118.13
2019-04-11T06:52:30.684Z,118.13
2019-04-11T06:53:30.515Z,118.13
2019-04-11T06:54:30.751Z,118.13
2019-04-11T06:55:30.842Z,118.13
2019-04-11T06:56:30.625Z,118.13
2019-04-11T06:57:30.661Z,118.13
2019-04-11T06:58:31.759Z,118.13
2019-04-11T06:59:30.733Z,118.13
2019-04-11T07:00:31.459Z,123.75
2019-04-11T07:01:31.028Z,123.75
2019-04-11T07:02:32.045Z,123.75
2019-04-11T07:03:32.415Z,123.75
2019-04-11T07:04:30.917Z,123.75
2019-04-11T07:05:30.977Z,123.75
2019-04-11T07:06:31.433Z,123.75
2019-04-11T07:07:32.801Z,123.75
2019-04-11T07:08:32.040Z,123.75
2019-04-11T07:09:31.101Z,123.75
2019-04-11T07:10:31.141Z,123.75
2019-04-11T07:11:31.966Z,123.75
2019-04-11T07:12:31.209Z,123.75
2019-04-11T07:13:31.255Z,123.75
2019-04-11T07:14:31.315Z,123.75
2019-04-11T07:15:31.577Z,123.75
2019-04-11T07:16:31.361Z,123.75
2019-04-11T07:17:31.749Z,123.75
2019-04-11T07:18:31.428Z,123.75
2019-04-11T07:19:31.468Z,123.75
2019-04-11T07:20:31.506Z,123.75
2019-04-11T07:21:31.541Z,123.75
2019-04-11T07:22:32.667Z,123.75
2019-04-11T07:23:32.772Z,123.75
2019-04-11T07:24:32.333Z,123.75
2019-04-11T07:25:31.687Z,123.75
2019-04-11T07:26:32.964Z,123.75
2019-04-11T07:27:32.289Z,123.75
2019-04-11T07:28:31.799Z,123.75
2019-04-11T07:29:31.835Z,123.75
2019-04-11T07:30:33.181Z,123.75
2019-04-11T07:31:32.056Z,123.75
2019-04-11T07:32:32.019Z,123.75
2019-04-11T07:33:33.257Z,123.75
2019-04-11T07:34:35.106Z,123.75
2019-04-11T07:35:32.064Z,123.75
2019-04-11T07:36:32.098Z,123.75
2019-04-11T07:37:32.570Z,123.75
2019-04-11T07:38:32.181Z,123.75
2019-04-11T07:39:33.651Z,123.75
2019-04-11T07:40:33.296Z,123.75
2019-04-11T07:41:32.283Z,123.75
2019-04-11T07:42:34.146Z,123.75
2019-04-11T07:43:33.511Z,123.75
2019-04-11T07:44:32.460Z,123.75
2019-04-11T07:45:32.428Z,123.75
2019-04-11T07:46:32.862Z,123.75
2019-04-11T07:47:32.503Z,123.75
2019-04-11T07:48:33.730Z,123.75
2019-04-11T07:49:32.920Z,129.38
2019-04-11T07:50:33.326Z,123.75
2019-04-11T07:51:32.660Z,123.75
2019-04-11T07:52:33.297Z,129.38
2019-04-11T07:53:33.713Z,129.38
2019-04-11T07:54:32.764Z,123.75
2019-04-11T07:55:32.801Z,123.75
2019-04-11T07:56:33.192Z,123.75
2019-04-11T07:57:32.997Z,129.38
2019-04-11T07:58:33.041Z,129.38
2019-04-11T07:59:33.857Z,129.38
2019-04-11T08:00:39.904Z,129.38
2019-04-11T08:01:33.888Z,129.38
2019-04-11T08:02:33.348Z,129.38
2019-04-11T08:03:33.109Z,129.38
2019-04-11T08:04:33.137Z,129.38
2019-04-11T08:05:34.442Z,129.38
2019-04-11T08:06:33.391Z,129.38
2019-04-11T08:07:33.257Z,129.38
2019-04-11T08:08:34.449Z,129.38
2019-04-11T08:09:33.542Z,129.38
2019-04-11T08:10:33.361Z,129.38
2019-04-11T08:11:33.869Z,129.38
2019-04-11T08:12:33.861Z,129.38
2019-04-11T08:13:34.638Z,129.38
2019-04-11T08:14:33.512Z,129.38
2019-04-11T08:15:33.572Z,129.38
2019-04-11T08:16:33.585Z,129.38
2019-04-11T08:17:37.642Z,129.38
2019-04-11T08:18:34.919Z,129.38
2019-04-11T08:19:33.698Z,129.38
2019-04-11T08:20:33.734Z,129.38
2019-04-11T08:21:35.700Z,129.38
2019-04-11T08:22:34.988Z,129.38
2019-04-11T08:23:33.906Z,129.38
2019-04-11T08:24:34.486Z,129.38
2019-04-11T08:25:33.920Z,129.38
2019-04-11T08:26:33.989Z,129.38
2019-04-11T08:27:33.996Z,129.38
2019-04-11T08:28:35.461Z,129.38
2019-04-11T08:29:34.127Z,129.38
2019-04-11T08:30:35.006Z,129.38
2019-04-11T08:31:34.145Z,129.38
2019-04-11T08:32:34.183Z,129.38
2019-04-11T08:33:35.114Z,135.00
2019-04-11T08:34:35.331Z,129.38
2019-04-11T08:35:34.943Z,135.00
2019-04-11T08:36:34.342Z,135.00
2019-04-11T08:37:34.370Z,135.00
2019-04-11T08:38:34.415Z,129.38
2019-04-11T08:39:35.297Z,135.00
2019-04-11T08:40:35.526Z,135.00
2019-04-11T08:41:35.760Z,135.00
2019-04-11T08:42:37.213Z,135.00
2019-04-11T08:43:35.244Z,140.63
2019-04-11T08:44:34.637Z,140.63
2019-04-11T08:45:34.669Z,146.25
2019-04-11T08:46:35.122Z,146.25
2019-04-11T08:47:46.503Z,146.25
2019-04-11T08:48:35.152Z,151.88
2019-04-11T08:49:35.098Z,180.00
2019-04-11T08:50:34.859Z,202.50
2019-04-11T08:51:35.696Z,241.88
2019-04-11T08:52:36.044Z,264.38
2019-04-11T08:53:35.124Z,258.75
2019-04-11T08:54:35.010Z,225.00
2019-04-11T08:55:45.660Z,191.25
2019-04-11T08:56:35.186Z,185.63
2019-04-11T08:57:36.156Z,180.00
2019-04-11T08:58:36.339Z,185.63
2019-04-11T08:59:35.853Z,196.88
2019-04-11T09:00:35.255Z,196.88
2019-04-11T09:01:36.008Z,185.63
2019-04-11T09:02:35.456Z,180.00
2019-04-11T09:03:35.352Z,180.00
2019-04-11T09:04:36.450Z,174.38
2019-04-11T09:05:35.549Z,185.63
2019-04-11T09:06:36.880Z,191.25
2019-04-11T09:07:35.995Z,185.63
2019-04-11T09:08:35.549Z,174.38
2019-04-11T09:09:37.692Z,180.00
2019-04-11T09:10:35.889Z,196.88
2019-04-11T09:11:38.803Z,208.13
2019-04-11T09:12:36.414Z,202.50
2019-04-11T09:13:35.738Z,196.88
2019-04-11T09:14:36.060Z,191.25
2019-04-11T09:15:37.003Z,185.63
2019-04-11T09:16:35.844Z,180.00
2019-04-11T09:17:36.652Z,174.38
2019-04-11T09:18:36.460Z,174.38
2019-04-11T09:19:35.959Z,174.38
2019-04-11T09:20:36.004Z,174.38
2019-04-11T09:21:36.267Z,196.88
2019-04-11T09:22:37.280Z,230.63
2019-04-11T09:23:36.110Z,270.00
2019-04-11T09:24:36.785Z,292.50
2019-04-11T09:25:37.038Z,320.63
2019-04-11T09:26:36.225Z,331.88
2019-04-11T09:27:36.579Z,348.75
2019-04-11T09:28:37.561Z,360.00
2019-04-11T09:29:36.342Z,354.38
2019-04-11T09:30:36.857Z,348.75
2019-04-11T09:31:36.417Z,343.13
2019-04-11T09:32:36.506Z,348.75
2019-04-11T09:33:38.072Z,360.00
2019-04-11T09:34:37.614Z,360.00
2019-04-11T09:35:37.400Z,354.38
2019-04-11T09:36:36.890Z,354.38
2019-04-11T09:37:37.804Z,348.75
2019-04-11T09:38:36.704Z,337.50
2019-04-11T09:39:37.259Z,326.25
2019-04-11T09:40:36.765Z,309.38
2019-04-11T09:41:36.804Z,292.50
2019-04-11T09:42:36.842Z,275.63
2019-04-11T09:44:37.903Z,253.13
2019-04-11T09:45:37.467Z,275.63
2019-04-11T09:46:36.999Z,298.13
2019-04-11T09:47:38.278Z,320.63
2019-04-11T09:48:37.920Z,337.50
2019-04-11T09:49:37.685Z,348.75
2019-04-11T09:50:37.336Z,337.50
2019-04-11T09:51:38.009Z,326.25
2019-04-11T09:52:37.241Z,320.63
2019-04-11T09:53:37.273Z,315.00
2019-04-11T09:54:37.320Z,309.38
2019-04-11T09:55:37.529Z,315.00
2019-04-11T09:56:37.881Z,320.63
2019-04-11T09:57:37.664Z,320.63
2019-04-11T09:58:37.918Z,315.00
2019-04-11T09:59:37.531Z,303.75
2019-04-11T10:00:38.795Z,292.50
2019-04-11T10:01:37.586Z,292.50
2019-04-11T10:02:37.625Z,298.13
2019-04-11T10:03:38.759Z,309.38
2019-04-11T10:04:37.705Z,309.38
2019-04-11T10:05:38.290Z,309.38
2019-04-11T10:06:38.876Z,326.25
2019-04-11T10:07:37.823Z,331.88
2019-04-11T10:08:37.863Z,320.63
2019-04-11T10:09:37.926Z,315.00
2019-04-11T10:10:40.693Z,303.75
2019-04-11T10:11:38.126Z,303.75
2019-04-11T10:12:38.305Z,286.88
2019-04-11T10:13:38.059Z,286.88
2019-04-11T10:14:38.103Z,281.25
2019-04-11T10:15:38.139Z,270.00
2019-04-11T10:16:38.182Z,253.13
2019-04-11T10:17:38.223Z,236.25
2019-04-11T10:18:40.525Z,213.75
2019-04-11T10:19:38.395Z,208.13
2019-04-11T10:20:38.334Z,219.38
2019-04-11T10:21:39.477Z,247.50
2019-04-11T10:22:38.428Z,253.13
2019-04-11T10:23:38.643Z,247.50
2019-04-11T10:24:38.782Z,236.25
2019-04-11T10:25:39.372Z,225.00
2019-04-11T10:26:38.570Z,225.00
2019-04-11T10:27:38.750Z,230.63
2019-04-11T10:28:39.564Z,253.13
2019-04-11T10:29:39.792Z,253.13
2019-04-11T10:30:39.815Z,247.50
2019-04-11T10:31:38.946Z,247.50
2019-04-11T10:32:39.297Z,247.50
2019-04-11T10:33:39.369Z,241.88
2019-04-11T10:34:38.888Z,241.88
2019-04-11T10:35:38.925Z,253.13
2019-04-11T10:36:39.085Z,253.13
2019-04-11T10:37:40.064Z,270.00
2019-04-11T10:38:39.041Z,292.50
2019-04-11T10:39:39.598Z,326.25
2019-04-11T10:40:39.911Z,343.13
2019-04-11T10:41:40.014Z,326.25
2019-04-11T10:42:39.199Z,298.13
2019-04-11T10:43:40.362Z,281.25
2019-04-11T10:44:40.289Z,292.50
2019-04-11T10:45:39.567Z,303.75
2019-04-11T10:46:39.654Z,315.00
2019-04-11T10:47:39.399Z,315.00
2019-04-11T10:48:42.516Z,309.38
2019-04-11T10:49:39.472Z,309.38
2019-04-11T10:50:40.304Z,281.25
2019-04-11T10:51:40.771Z,253.13
2019-04-11T10:52:39.591Z,219.38
2019-04-11T10:53:39.641Z,202.50
2019-04-11T10:54:40.797Z,196.88
2019-04-11T10:55:39.920Z,202.50
2019-04-11T10:56:39.753Z,230.63
2019-04-11T10:57:40.383Z,230.63
2019-04-11T10:58:40.673Z,230.63
2019-04-11T10:59:40.791Z,219.38
2019-04-11T11:00:39.907Z,202.50
2019-04-11T11:01:40.229Z,180.00
2019-04-11T11:02:39.993Z,168.75
2019-04-11T11:03:40.025Z,168.75
2019-04-11T11:04:41.001Z,157.50
2019-04-11T11:05:40.201Z,157.50
2019-04-11T11:06:40.145Z,151.88
2019-04-11T11:07:40.563Z,157.50
2019-04-11T11:08:40.225Z,157.50
2019-04-11T11:09:40.314Z,163.13
2019-04-11T11:10:40.302Z,168.75
2019-04-11T11:11:40.854Z,174.38
2019-04-11T11:12:41.451Z,180.00
2019-04-11T11:13:40.748Z,174.38
2019-04-11T11:14:40.459Z,168.75
2019-04-11T11:15:40.499Z,168.75
2019-04-11T11:16:44.397Z,168.75
2019-04-11T11:17:57.105Z,163.13
2019-04-11T11:19:03.617Z,157.50
2019-04-11T11:19:55.178Z,157.50
2019-04-11T11:20:48.218Z,157.50
2019-04-11T11:21:40.860Z,151.88
2019-04-11T11:22:41.905Z,151.88
2019-04-11T11:23:41.069Z,151.88
2019-04-11T11:24:42.055Z,151.88
2019-04-11T11:25:42.262Z,157.50
2019-04-11T11:26:41.193Z,168.75
2019-04-11T11:27:41.620Z,174.38
2019-04-11T11:28:41.094Z,168.75
2019-04-11T11:29:41.049Z,157.50
2019-04-11T11:30:41.088Z,151.88
2019-04-11T11:31:41.135Z,146.25
2019-04-11T11:32:41.232Z,146.25
2019-04-11T11:33:41.204Z,146.25
2019-04-11T11:34:41.251Z,151.88
2019-04-11T11:35:42.848Z,151.88
2019-04-11T11:36:41.603Z,151.88
2019-04-11T11:37:41.692Z,157.50
2019-04-11T11:38:41.861Z,157.50
2019-04-11T11:39:41.451Z,157.50
2019-04-11T11:40:43.132Z,157.50
2019-04-11T11:41:42.517Z,157.50
2019-04-11T11:42:42.154Z,163.13
2019-04-11T11:43:41.595Z,163.13
2019-04-11T11:44:41.635Z,163.13
2019-04-11T11:45:41.739Z,163.13
2019-04-11T11:46:42.634Z,168.75
2019-04-11T11:47:43.079Z,168.75
2019-04-11T11:48:41.867Z,168.75
2019-04-11T11:49:51.884Z,168.75
2019-04-11T11:50:42.719Z,168.75
2019-04-11T11:51:41.903Z,174.38
2019-04-11T11:52:42.836Z,180.00
2019-04-11T11:53:42.802Z,174.38
2019-04-11T11:54:42.023Z,168.75
2019-04-11T11:55:43.134Z,174.38
2019-04-11T11:56:42.506Z,180.00
2019-04-11T11:57:42.715Z,180.00
2019-04-11T11:58:43.740Z,174.38
2019-04-11T11:59:42.883Z,168.75
2019-04-11T12:00:42.350Z,168.75
2019-04-11T12:01:46.491Z,168.75
2019-04-11T12:02:42.450Z,168.75
2019-04-11T12:03:42.505Z,168.75
2019-04-11T12:04:42.409Z,174.38
2019-04-11T12:05:48.036Z,185.63
2019-04-11T12:06:43.039Z,202.50
2019-04-11T12:07:43.071Z,253.13
2019-04-11T12:08:46.649Z,270.00
2019-04-11T12:09:42.625Z,270.00
2019-04-11T12:10:43.713Z,241.88
2019-04-11T12:11:42.688Z,219.38
2019-04-11T12:12:42.724Z,219.38
2019-04-11T12:13:43.288Z,241.88
2019-04-11T12:14:44.970Z,281.25
2019-04-11T12:15:43.505Z,320.63
2019-04-11T12:16:43.833Z,331.88
2019-04-11T12:17:42.919Z,331.88
2019-04-11T12:18:48.070Z,315.00
2019-04-11T12:19:52.320Z,275.63
2019-04-11T12:20:44.902Z,247.50
2019-04-11T12:21:45.825Z,225.00
2019-04-11T12:22:44.316Z,213.75
2019-04-11T12:23:53.968Z,219.38
2019-04-11T12:24:43.345Z,236.25
2019-04-11T12:25:43.242Z,253.13
2019-04-11T12:26:45.773Z,270.00
2019-04-11T12:27:43.716Z,281.25
2019-04-11T12:28:43.738Z,281.25
2019-04-11T12:29:46.702Z,241.88
2019-04-11T12:30:44.097Z,208.13
2019-04-11T12:31:43.986Z,196.88
2019-04-11T12:32:44.404Z,185.63
2019-04-11T12:33:43.756Z,168.75
2019-04-11T12:34:45.080Z,168.75
2019-04-11T12:35:44.340Z,163.13
2019-04-11T12:36:47.422Z,168.75
2019-04-11T12:37:43.711Z,163.13
2019-04-11T12:38:43.752Z,163.13
2019-04-11T12:39:43.791Z,163.13
2019-04-11T12:40:43.833Z,163.13
2019-04-11T12:41:43.873Z,163.13
2019-04-11T12:42:43.912Z,163.13
2019-04-11T12:43:43.956Z,163.13
2019-04-11T12:44:43.992Z,163.13
2019-04-11T12:45:44.032Z,163.13
2019-04-11T12:46:44.075Z,168.75
2019-04-11T12:47:44.111Z,163.13
2019-04-11T12:48:44.150Z,168.75
2019-04-11T12:49:52.478Z,174.38
2019-04-11T12:50:44.246Z,174.38
2019-04-11T12:51:44.266Z,185.63
2019-04-11T12:52:44.311Z,174.38